Time;durP1;ratioP1;P1;durP2;ratioP2;P2;SDS_P1;SDS_P2;PMS_P1;PMS_P2;Temp;Humidity;BMP_temperature;BMP_pressure;BME280_temperature;BME280_humidity;BME280_pressure;Samples;Min_cycle;Max_cycle;Signal;HPM_P1;HPM_P2
2022/05/11 00:01:57;;;;;;;3.10;2.38;;;;;;;;;;5016011;28;20201;-43
2022/05/11 00:04:25;;;;;;;4.10;2.70;;;;;;;;;;5016466;28;20228;-44
2022/05/11 00:06:53;;;;;;;2.97;1.95;;;;;;;;;;5016185;28;20202;-42
2022/05/11 00:09:20;;;;;;;4.60;2.22;;;;;;;;;;5016023;28;20229;-42
2022/05/11 00:11:47;;;;;;;4.07;2.03;;;;;;;;;;5016093;28;20260;-43
2022/05/11 00:14:15;;;;;;;3.17;2.22;;;;;;;;;;5015717;28;20267;-42
2022/05/11 00:16:42;;;;;;;6.25;2.42;;;;;;;;;;5015973;28;20212;-44
2022/05/11 00:19:09;;;;;;;7.47;2.65;;;;;;;;;;5015779;28;20220;-42
2022/05/11 00:21:36;;;;;;;3.90;2.40;;;;;;;;;;5015701;28;20651;-47
2022/05/11 00:24:03;;;;;;;5.47;2.03;;;;;;;;;;5015798;28;20257;-43
2022/05/11 00:26:30;;;;;;;3.55;2.00;;;;;;;;;;5015661;28;20260;-42
2022/05/11 00:28:57;;;;;;;5.70;2.20;;;;;;;;;;5015827;28;20233;-42
2022/05/11 00:31:24;;;;;;;3.67;2.40;;;;;;;;;;5015514;28;20263;-42
2022/05/11 00:33:52;;;;;;;3.72;2.60;;;;;;;;;;5015500;28;20272;-42
2022/05/11 00:36:19;;;;;;;5.32;2.47;;;;;;;;;;5015608;28;20216;-42
2022/05/11 00:38:47;;;;;;;4.47;2.78;;;;;;;;;;5016198;28;20201;-43
2022/05/11 00:41:15;;;;;;;5.10;2.30;;;;;;;;;;5016137;28;20275;-43
2022/05/11 00:43:52;;;;;;;4.50;2.30;;;;;;;;;;5015540;28;20237;-43
2022/05/11 00:46:27;;;;;;;6.93;2.58;;;;;;;;;;5016030;28;20220;-42
2022/05/11 00:51:45;;;;;;;5.40;2.20;;;;;;;;;;5015546;28;20291;-42
2022/05/11 00:54:14;;;;;;;6.55;2.80;;;;;;;;;;5047195;28;20291;-43
2022/05/11 00:56:47;;;;;;;5.43;2.70;;;;;;;;;;5047198;28;20209;-42
2022/05/11 00:59:17;;;;;;;4.22;2.72;;;;;;;;;;5014721;28;20212;-42
2022/05/11 01:01:44;;;;;;;3.50;2.60;;;;;;;;;;5028202;28;20219;-43
2022/05/11 01:04:14;;;;;;;5.28;2.45;;;;;;;;;;5027661;28;20230;-43
2022/05/11 01:06:42;;;;;;;5.45;2.70;;;;;;;;;;5014457;28;20201;-42
2022/05/11 01:09:10;;;;;;;4.85;2.97;;;;;;;;;;5015220;28;20276;-42
2022/05/11 01:11:43;;;;;;;8.82;2.92;;;;;;;;;;5015165;28;20220;-43
2022/05/11 01:14:13;;;;;;;4.60;2.97;;;;;;;;;;5015137;28;20216;-42
2022/05/11 01:16:40;;;;;;;7.43;3.30;;;;;;;;;;5013896;28;20663;-43
2022/05/11 01:19:11;;;;;;;7.18;3.15;;;;;;;;;;5015556;28;20209;-43
2022/05/11 01:21:43;;;;;;;5.32;3.20;;;;;;;;;;5013627;28;20663;-43
2022/05/11 01:24:32;;;;;;;3.80;2.70;;;;;;;;;;5014213;28;20316;-42
2022/05/11 01:27:22;;;;;;;6.25;3.45;;;;;;;;;;5014238;28;20540;-42
2022/05/11 01:29:49;;;;;;;8.05;3.25;;;;;;;;;;5015423;28;20220;-42
2022/05/11 01:32:17;;;;;;;6.75;3.38;;;;;;;;;;5014896;28;20209;-42
2022/05/11 01:34:44;;;;;;;5.05;2.88;;;;;;;;;;5014921;28;20621;-42
2022/05/11 01:37:12;;;;;;;5.85;3.10;;;;;;;;;;5014932;28;20205;-43
2022/05/11 01:39:39;;;;;;;7.03;3.28;;;;;;;;;;5014846;28;20213;-42
2022/05/11 01:42:06;;;;;;;7.10;3.20;;;;;;;;;;5015197;28;20205;-42
2022/05/11 01:44:33;;;;;;;7.00;3.22;;;;;;;;;;5014664;28;20221;-42
2022/05/11 01:47:01;;;;;;;6.63;2.90;;;;;;;;;;5014744;28;20260;-42
2022/05/11 01:49:28;;;;;;;6.13;3.00;;;;;;;;;;5013890;28;20632;-42
2022/05/11 01:51:55;;;;;;;4.97;2.95;;;;;;;;;;5015233;28;20264;-44
2022/05/11 01:54:23;;;;;;;5.22;3.00;;;;;;;;;;5014551;28;20224;-42
2022/05/11 01:56:50;;;;;;;6.38;3.35;;;;;;;;;;5015040;28;20541;-42
2022/05/11 01:59:17;;;;;;;7.15;3.53;;;;;;;;;;5014938;28;20300;-42
2022/05/11 02:01:45;;;;;;;5.97;3.40;;;;;;;;;;5014813;28;20209;-42
2022/05/11 02:09:44;;;;;;;4.45;2.80;;;;;;;;;;5014614;28;20219;-43
2022/05/11 02:12:12;;;;;;;8.15;3.15;;;;;;;;;;5017875;28;20205;-43
2022/05/11 02:14:39;;;;;;;6.13;2.95;;;;;;;;;;5017702;28;20233;-43
2022/05/11 02:17:06;;;;;;;7.18;3.28;;;;;;;;;;5017713;28;20723;-43
2022/05/11 02:19:33;;;;;;;8.68;3.40;;;;;;;;;;5017671;28;20205;-43
2022/05/11 02:22:00;;;;;;;6.53;2.65;;;;;;;;;;5018114;28;20202;-42
2022/05/11 02:24:27;;;;;;;6.72;3.20;;;;;;;;;;5017700;28;20554;-43
2022/05/11 02:26:55;;;;;;;5.40;3.10;;;;;;;;;;5017637;28;20284;-42
2022/05/11 02:29:23;;;;;;;6.07;3.30;;;;;;;;;;5017513;28;20675;-42
2022/05/11 02:31:50;;;;;;;4.78;3.20;;;;;;;;;;5017679;28;20205;-42
2022/05/11 02:35:12;;;;;;;4.53;3.15;;;;;;;;;;5017398;28;20212;-42
2022/05/11 02:37:04;;;;;;;7.88;3.30;;;;;;;;;;5017408;28;20205;-42
2022/05/11 02:39:31;;;;;;;9.63;3.05;;;;;;;;;;5017433;28;20213;-42
2022/05/11 02:42:00;;;;;;;5.65;3.42;;;;;;;;;;5017304;28;20213;-43
2022/05/11 02:44:28;;;;;;;4.75;3.00;;;;;;;;;;5017580;28;20229;-42
2022/05/11 02:46:56;;;;;;;6.15;3.15;;;;;;;;;;5017468;28;20208;-42
2022/05/11 02:49:23;;;;;;;6.53;3.10;;;;;;;;;;5017121;28;20632;-42
2022/05/11 02:51:50;;;;;;;7.25;3.47;;;;;;;;;;5017168;28;20670;-42
2022/05/11 02:54:17;;;;;;;6.78;3.28;;;;;;;;;;5017026;28;20205;-43
2022/05/11 02:56:45;;;;;;;9.38;3.75;;;;;;;;;;5016988;28;20232;-43
2022/05/11 02:59:12;;;;;;;5.30;3.17;;;;;;;;;;5017269;28;20209;-43
2022/05/11 03:01:39;;;;;;;5.90;3.15;;;;;;;;;;5016849;28;20672;-43
2022/05/11 03:04:07;;;;;;;3.58;3.10;;;;;;;;;;5017034;28;20272;-43
2022/05/11 03:06:33;;;;;;;6.20;3.33;;;;;;;;;;5016829;28;20636;-42
2022/05/11 03:09:01;;;;;;;6.22;3.50;;;;;;;;;;5016819;28;20202;-43
2022/05/11 03:11:28;;;;;;;8.05;3.33;;;;;;;;;;5016691;28;20205;-43
2022/05/11 03:13:55;;;;;;;7.05;3.20;;;;;;;;;;5016928;28;20633;-43
2022/05/11 03:16:26;;;;;;;5.15;3.45;;;;;;;;;;5017026;28;20202;-42
2022/05/11 03:18:53;;;;;;;5.15;3.22;;;;;;;;;;5016904;28;20205;-42
2022/05/11 03:21:21;;;;;;;6.93;3.60;;;;;;;;;;5016637;28;20205;-42
2022/05/11 03:23:48;;;;;;;6.60;3.85;;;;;;;;;;5016062;28;20255;-43
2022/05/11 03:26:15;;;;;;;8.45;3.70;;;;;;;;;;5016792;28;20249;-44
2022/05/11 03:28:42;;;;;;;5.75;3.40;;;;;;;;;;5016858;28;20260;-44
2022/05/11 03:31:10;;;;;;;6.22;3.55;;;;;;;;;;5016778;28;20287;-44
2022/05/11 03:36:23;;;;;;;6.50;3.53;;;;;;;;;;5016630;28;20275;-43
2022/05/11 03:38:50;;;;;;;5.57;3.70;;;;;;;;;;5016343;28;20213;-42
2022/05/11 03:41:17;;;;;;;7.10;3.58;;;;;;;;;;5016958;28;20209;-43
2022/05/11 03:43:45;;;;;;;4.82;3.53;;;;;;;;;;5016356;28;20213;-44
2022/05/11 03:46:14;;;;;;;4.10;3.63;;;;;;;;;;5016215;28;20279;-43
2022/05/11 03:48:41;;;;;;;7.13;3.40;;;;;;;;;;5016517;28;20209;-43
2022/05/11 03:51:10;;;;;;;10.98;4.25;;;;;;;;;;5016473;28;20237;-45
2022/05/11 03:53:37;;;;;;;7.05;3.58;;;;;;;;;;5016074;28;20201;-43
2022/05/11 03:56:04;;;;;;;5.32;3.63;;;;;;;;;;5016497;28;20252;-45
2022/05/11 03:58:31;;;;;;;8.63;4.13;;;;;;;;;;5026163;28;20200;-44
2022/05/11 04:00:58;;;;;;;10.38;4.50;;;;;;;;;;5033763;28;20311;-46
2022/05/11 04:03:26;;;;;;;9.10;4.07;;;;;;;;;;5035883;28;20208;-46
2022/05/11 04:05:53;;;;;;;6.50;3.90;;;;;;;;;;5027831;28;20298;-42
2022/05/11 04:08:20;;;;;;;7.95;4.13;;;;;;;;;;5054601;28;20542;-46
2022/05/11 04:10:47;;;;;;;6.85;3.78;;;;;;;;;;5054699;28;20220;-43
2022/05/11 04:13:14;;;;;;;6.90;4.70;;;;;;;;;;5054966;28;20232;-43
2022/05/11 04:15:41;;;;;;;5.35;3.90;;;;;;;;;;5054727;28;20255;-43
2022/05/11 04:18:08;;;;;;;9.00;3.58;;;;;;;;;;5055148;28;20293;-43
2022/05/11 04:20:35;;;;;;;6.57;4.07;;;;;;;;;;5054326;28;20290;-45
2022/05/11 04:23:02;;;;;;;7.60;4.30;;;;;;;;;;5054707;28;20686;-43
2022/05/11 04:25:29;;;;;;;7.10;3.83;;;;;;;;;;5054484;28;20236;-43
2022/05/11 04:27:56;;;;;;;9.32;3.65;;;;;;;;;;5054569;28;20672;-43
2022/05/11 04:30:26;;;;;;;11.30;3.67;;;;;;;;;;5024394;28;20228;-43
2022/05/11 04:32:53;;;;;;;7.85;3.60;;;;;;;;;;5014250;28;20226;-42
2022/05/11 04:35:21;;;;;;;6.25;4.22;;;;;;;;;;5014549;28;20237;-43
2022/05/11 04:37:47;;;;;;;5.57;3.53;;;;;;;;;;5014772;28;20544;-43
2022/05/11 04:40:15;;;;;;;8.50;3.55;;;;;;;;;;5014459;28;20229;-43
2022/05/11 04:42:44;;;;;;;7.68;4.35;;;;;;;;;;5013505;28;20317;-43
2022/05/11 04:45:12;;;;;;;10.60;3.65;;;;;;;;;;5013474;28;20614;-43
2022/05/11 04:47:39;;;;;;;14.98;4.18;;;;;;;;;;5026151;28;20546;-43
2022/05/11 04:50:07;;;;;;;7.38;3.80;;;;;;;;;;5039135;28;22223;-44
2022/05/11 04:52:34;;;;;;;6.20;3.60;;;;;;;;;;5052995;28;20216;-43
2022/05/11 04:55:02;;;;;;;5.25;3.60;;;;;;;;;;5053370;28;20220;-43
2022/05/11 04:57:30;;;;;;;10.25;4.03;;;;;;;;;;5053960;28;20242;-43
2022/05/11 04:59:57;;;;;;;5.80;3.33;;;;;;;;;;5054337;28;20244;-43
2022/05/11 05:02:27;;;;;;;8.13;3.95;;;;;;;;;;5052832;28;20223;-43
2022/05/11 05:05:01;;;;;;;4.95;2.92;;;;;;;;;;5053274;28;20251;-44
2022/05/11 05:07:28;;;;;;;5.85;3.55;;;;;;;;;;5054459;28;20251;-43
2022/05/11 05:09:55;;;;;;;7.85;3.53;;;;;;;;;;5053901;28;20227;-43
2022/05/11 05:12:24;;;;;;;8.23;3.15;;;;;;;;;;5053858;28;20228;-44
2022/05/11 05:14:51;;;;;;;11.45;3.53;;;;;;;;;;5054391;28;20240;-43
2022/05/11 05:17:18;;;;;;;7.30;3.35;;;;;;;;;;5054588;28;20295;-43
2022/05/11 05:19:46;;;;;;;7.78;3.47;;;;;;;;;;5053633;28;20639;-43
2022/05/11 05:22:13;;;;;;;6.32;3.35;;;;;;;;;;5054347;28;20223;-45
2022/05/11 05:24:41;;;;;;;5.18;2.83;;;;;;;;;;5054643;28;20208;-43
2022/05/11 05:27:11;;;;;;;15.68;3.38;;;;;;;;;;5054737;28;20716;-43
2022/05/11 05:32:24;;;;;;;9.55;3.10;;;;;;;;;;5055169;28;20204;-44
2022/05/11 05:34:51;;;;;;;8.05;3.35;;;;;;;;;;5054452;28;20211;-43
2022/05/11 05:37:18;;;;;;;7.28;3.40;;;;;;;;;;5054315;28;20666;-43
2022/05/11 05:39:46;;;;;;;13.88;4.03;;;;;;;;;;5054624;28;20199;-43
2022/05/11 05:42:20;;;;;;;6.72;3.35;;;;;;;;;;5055069;28;20204;-43
2022/05/11 05:44:48;;;;;;;6.30;2.97;;;;;;;;;;5054738;28;20200;-44
2022/05/11 05:47:16;;;;;;;8.55;3.70;;;;;;;;;;5058568;28;20287;-43
2022/05/11 05:49:43;;;;;;;7.85;3.05;;;;;;;;;;5058133;28;20254;-46
2022/05/11 05:52:19;;;;;;;6.43;3.08;;;;;;;;;;5057996;28;20235;-43
2022/05/11 05:54:47;;;;;;;8.45;3.53;;;;;;;;;;5058390;28;20186;-43
2022/05/11 05:57:15;;;;;;;6.47;3.55;;;;;;;;;;5058212;28;20642;-43
2022/05/11 05:59:42;;;;;;;7.18;3.60;;;;;;;;;;5058154;28;20643;-43
2022/05/11 06:02:13;;;;;;;8.10;3.42;;;;;;;;;;5058187;28;20290;-43
2022/05/11 06:04:42;;;;;;;5.82;3.00;;;;;;;;;;5058211;28;20204;-43
2022/05/11 06:07:09;;;;;;;7.13;3.53;;;;;;;;;;5058651;28;20212;-43
2022/05/11 06:09:36;;;;;;;16.25;3.50;;;;;;;;;;5058151;28;20270;-43
2022/05/11 06:12:03;;;;;;;6.32;3.13;;;;;;;;;;5057232;28;20215;-43
2022/05/11 06:14:30;;;;;;;9.20;3.33;;;;;;;;;;5057781;28;20270;-43
2022/05/11 06:16:59;;;;;;;6.82;3.40;;;;;;;;;;5057734;28;20654;-44
2022/05/11 06:19:27;;;;;;;7.35;3.15;;;;;;;;;;5058134;28;20208;-44
2022/05/11 06:21:54;;;;;;;6.45;3.45;;;;;;;;;;5057281;28;20589;-43
2022/05/11 06:24:30;;;;;;;7.50;3.03;;;;;;;;;;5057968;28;20208;-43
2022/05/11 06:26:57;;;;;;;9.40;3.20;;;;;;;;;;5057531;28;20228;-43
2022/05/11 06:29:30;;;;;;;6.88;3.40;;;;;;;;;;5057969;28;20258;-43
2022/05/11 06:31:57;;;;;;;15.05;3.83;;;;;;;;;;5057846;28;20199;-43
2022/05/11 06:34:25;;;;;;;7.53;3.08;;;;;;;;;;5057521;28;20204;-43
2022/05/11 06:36:53;;;;;;;7.50;3.00;;;;;;;;;;5057613;28;20212;-43
2022/05/11 06:39:21;;;;;;;8.23;3.08;;;;;;;;;;5057435;28;20199;-43
2022/05/11 06:41:48;;;;;;;7.63;2.97;;;;;;;;;;5057603;28;20204;-44
2022/05/11 06:44:16;;;;;;;8.63;3.22;;;;;;;;;;5057705;28;20212;-43
2022/05/11 06:46:44;;;;;;;7.97;3.22;;;;;;;;;;5057870;28;20220;-44
2022/05/11 06:49:11;;;;;;;5.35;2.65;;;;;;;;;;5057360;28;20519;-44
2022/05/11 06:51:39;;;;;;;10.60;3.03;;;;;;;;;;5057408;28;20228;-44
2022/05/11 06:59:36;;;;;;;6.53;2.85;;;;;;;;;;5057009;28;20650;-43
2022/05/11 07:02:04;;;;;;;10.73;3.40;;;;;;;;;;5057172;28;20196;-44
2022/05/11 07:04:37;;;;;;;7.38;2.80;;;;;;;;;;5057019;28;20215;-44
2022/05/11 07:07:07;;;;;;;8.68;3.22;;;;;;;;;;5057289;28;20298;-43
2022/05/11 07:09:35;;;;;;;9.02;3.17;;;;;;;;;;5056975;28;20273;-43
2022/05/11 07:12:18;;;;;;;6.55;3.10;;;;;;;;;;5057042;28;20249;-44
2022/05/11 07:14:50;;;;;;;5.40;2.80;;;;;;;;;;5057019;28;20211;-43
2022/05/11 07:17:23;;;;;;;8.27;3.63;;;;;;;;;;5056613;28;20619;-44
2022/05/11 07:19:50;;;;;;;13.75;3.47;;;;;;;;;;5056898;28;20204;-44
2022/05/11 07:22:17;;;;;;;11.80;3.33;;;;;;;;;;5056816;28;20204;-44
2022/05/11 07:24:44;;;;;;;9.65;3.22;;;;;;;;;;5056415;28;20302;-44
2022/05/11 07:27:11;;;;;;;8.77;3.08;;;;;;;;;;5056776;28;20297;-43
2022/05/11 07:29:38;;;;;;;7.47;3.00;;;;;;;;;;5056282;28;20200;-44
2022/05/11 07:32:06;;;;;;;7.40;2.90;;;;;;;;;;5056366;28;20239;-43
2022/05/11 07:34:33;;;;;;;6.43;2.90;;;;;;;;;;5056584;28;20200;-44
2022/05/11 07:37:00;;;;;;;5.15;3.00;;;;;;;;;;5056514;28;20265;-43
2022/05/11 07:39:27;;;;;;;6.22;2.55;;;;;;;;;;5056250;28;20223;-43
2022/05/11 07:41:58;;;;;;;6.40;3.28;;;;;;;;;;5056825;28;20200;-43
2022/05/11 07:44:25;;;;;;;7.82;2.83;;;;;;;;;;5056457;28;20214;-44
2022/05/11 07:46:53;;;;;;;6.13;3.15;;;;;;;;;;5056318;28;20323;-44
2022/05/11 07:49:20;;;;;;;8.15;2.92;;;;;;;;;;5056341;28;20206;-43
2022/05/11 07:51:49;;;;;;;8.68;3.05;;;;;;;;;;5056393;28;20250;-44
2022/05/11 07:54:16;;;;;;;8.00;2.70;;;;;;;;;;5055764;28;20235;-43
2022/05/11 08:02:15;;;;;;;5.82;2.38;;;;;;;;;;5056261;28;20261;-44
2022/05/11 08:04:42;;;;;;;5.63;2.80;;;;;;;;;;5055981;28;20239;-43
2022/05/11 08:07:10;;;;;;;4.43;2.50;;;;;;;;;;5055772;28;20231;-43
2022/05/11 08:09:37;;;;;;;9.25;2.60;;;;;;;;;;5055563;28;20200;-43
2022/05/11 08:12:04;;;;;;;8.38;2.78;;;;;;;;;;5055890;28;20208;-44
2022/05/11 08:14:32;;;;;;;6.90;3.28;;;;;;;;;;5055692;28;20277;-43
2022/05/11 08:16:59;;;;;;;6.68;2.75;;;;;;;;;;5055631;28;20215;-43
2022/05/11 08:19:27;;;;;;;7.55;2.83;;;;;;;;;;5055489;28;20341;-43
2022/05/11 08:21:55;;;;;;;9.05;2.78;;;;;;;;;;5055336;28;20265;-43
2022/05/11 08:24:22;;;;;;;8.50;2.88;;;;;;;;;;5055336;28;20646;-43
2022/05/11 08:26:52;;;;;;;4.95;2.50;;;;;;;;;;5055941;28;20224;-43
2022/05/11 08:34:52;;;;;;;4.60;2.20;;;;;;;;;;5055559;28;20237;-44
2022/05/11 08:37:19;;;;;;;6.35;2.88;;;;;;;;;;5055212;28;20635;-44
2022/05/11 08:39:48;;;;;;;11.35;3.45;;;;;;;;;;5055317;28;20204;-44
2022/05/11 08:42:16;;;;;;;9.23;3.28;;;;;;;;;;5055204;28;20208;-44
2022/05/11 08:44:48;;;;;;;7.45;3.25;;;;;;;;;;5055433;28;20227;-43
2022/05/11 08:47:27;;;;;;;5.55;2.72;;;;;;;;;;5054479;28;20234;-44
2022/05/11 08:50:06;;;;;;;5.68;2.80;;;;;;;;;;5053863;28;20204;-43
2022/05/11 08:52:43;;;;;;;7.18;2.80;;;;;;;;;;5055198;28;20204;-43
2022/05/11 08:55:12;;;;;;;7.22;3.08;;;;;;;;;;5054251;28;20208;-43
2022/05/11 08:57:41;;;;;;;6.93;3.20;;;;;;;;;;5054770;28;20638;-44
2022/05/11 09:00:14;;;;;;;8.77;3.22;;;;;;;;;;5055016;28;20200;-43
2022/05/11 09:02:55;;;;;;;5.93;2.95;;;;;;;;;;5054871;28;20225;-43
2022/05/11 09:05:29;;;;;;;7.05;3.05;;;;;;;;;;5054205;28;20192;-45
2022/05/11 09:07:57;;;;;;;7.05;2.95;;;;;;;;;;5055035;28;20218;-44
2022/05/11 09:10:32;;;;;;;6.70;3.50;;;;;;;;;;5054079;28;20218;-43
2022/05/11 09:13:09;;;;;;;7.63;3.60;;;;;;;;;;5055174;28;20263;-44
2022/05/11 09:15:53;;;;;;;15.88;3.38;;;;;;;;;;5055795;28;20188;-43
2022/05/11 09:18:22;;;;;;;7.00;3.00;;;;;;;;;;5055058;28;20200;-44
2022/05/11 09:20:52;;;;;;;11.75;2.92;;;;;;;;;;5053253;28;20208;-44
2022/05/11 09:23:38;;;;;;;7.43;3.17;;;;;;;;;;5055071;28;20203;-45
2022/05/11 09:26:16;;;;;;;7.32;2.83;;;;;;;;;;5054426;28;20546;-44
2022/05/11 09:28:45;;;;;;;10.23;2.95;;;;;;;;;;5054693;28;20238;-43
2022/05/11 09:31:23;;;;;;;6.00;2.80;;;;;;;;;;5055206;28;20215;-44
2022/05/11 09:34:03;;;;;;;7.13;2.63;;;;;;;;;;5054803;28;20195;-43
2022/05/11 09:37:02;;;;;;;7.55;2.95;;;;;;;;;;5054608;28;20200;-44
2022/05/11 09:39:32;;;;;;;9.35;2.50;;;;;;;;;;5032900;28;20228;-43
2022/05/11 09:42:13;;;;;;;6.70;3.03;;;;;;;;;;5045190;28;20220;-44
2022/05/11 09:44:44;;;;;;;5.93;2.88;;;;;;;;;;5045670;28;20570;-44
2022/05/11 09:47:25;;;;;;;7.90;2.95;;;;;;;;;;5045357;28;20314;-45
2022/05/11 09:49:55;;;;;;;8.15;3.25;;;;;;;;;;5032001;28;20238;-46
2022/05/11 09:52:33;;;;;;;8.60;3.28;;;;;;;;;;5048403;28;20667;-46
2022/05/11 09:55:14;;;;;;;7.72;3.22;;;;;;;;;;5046790;28;20258;-46
2022/05/11 09:57:50;;;;;;;5.93;3.15;;;;;;;;;;5052661;28;20231;-45
2022/05/11 10:00:23;;;;;;;6.50;2.70;;;;;;;;;;5053572;28;20227;-46
2022/05/11 10:02:53;;;;;;;11.75;2.97;;;;;;;;;;5053699;28;20235;-45
2022/05/11 10:05:29;;;;;;;6.22;3.10;;;;;;;;;;5052888;28;20247;-46
2022/05/11 10:08:05;;;;;;;10.13;2.97;;;;;;;;;;5052056;28;20236;-46
2022/05/11 10:10:48;;;;;;;11.48;3.17;;;;;;;;;;5052484;28;20311;-46
2022/05/11 10:13:21;;;;;;;6.43;2.72;;;;;;;;;;5053523;28;20219;-46
2022/05/11 10:24:40;;;;;;;9.63;2.80;;;;;;;;;;5042878;28;20236;-46
2022/05/11 10:27:17;;;;;;;10.40;3.42;;;;;;;;;;5033628;28;20240;-45
2022/05/11 10:30:03;;;;;;;9.32;2.95;;;;;;;;;;5032584;28;20232;-45
2022/05/11 10:32:50;;;;;;;10.07;2.70;;;;;;;;;;5036226;28;20220;-45
2022/05/11 10:35:32;;;;;;;10.98;3.10;;;;;;;;;;5037205;28;20233;-48
2022/05/11 10:38:25;;;;;;;10.93;2.80;;;;;;;;;;5035957;28;20239;-48
2022/05/11 10:41:12;;;;;;;8.68;2.80;;;;;;;;;;5036141;28;20228;-48
2022/05/11 10:43:48;;;;;;;8.40;3.10;;;;;;;;;;5032874;28;20239;-45
2022/05/11 10:46:36;;;;;;;11.68;3.40;;;;;;;;;;5035532;28;20236;-46
2022/05/11 10:49:23;;;;;;;7.75;2.97;;;;;;;;;;5036896;28;20224;-46
2022/05/11 10:51:49;;;;;;;10.07;3.10;;;;;;;;;;5035519;28;20644;-46
2022/05/11 10:55:05;;;;;;;5.88;2.70;;;;;;;;;;5045534;28;20289;-46
2022/05/11 10:57:50;;;;;;;15.65;2.95;;;;;;;;;;5055407;28;20220;-46
2022/05/11 11:00:24;;;;;;;10.18;2.90;;;;;;;;;;5056206;28;20297;-48
2022/05/11 11:03:12;;;;;;;11.52;2.90;;;;;;;;;;5055680;28;20557;-46
2022/05/11 11:07:11;;;;;;;6.00;2.88;;;;;;;;;;5056162;28;20223;-45
2022/05/11 11:08:54;;;;;;;11.10;3.25;;;;;;;;;;5054571;28;20223;-45
2022/05/11 11:11:36;;;;;;;6.30;2.78;;;;;;;;;;5055239;28;20228;-45
2022/05/11 11:14:05;;;;;;;6.28;2.90;;;;;;;;;;5056887;28;20637;-45
2022/05/11 11:16:52;;;;;;;7.43;3.22;;;;;;;;;;5055941;28;20544;-45
2022/05/11 11:19:20;;;;;;;6.85;2.88;;;;;;;;;;5057127;28;20208;-45
2022/05/11 11:21:47;;;;;;;9.07;2.72;;;;;;;;;;5055679;28;20204;-45
2022/05/11 11:24:23;;;;;;;6.05;2.80;;;;;;;;;;5056993;28;20514;-45
2022/05/11 11:27:01;;;;;;;8.75;3.30;;;;;;;;;;5056552;28;20238;-46
2022/05/11 11:30:07;;;;;;;8.60;3.00;;;;;;;;;;5055952;28;20207;-45
2022/05/11 11:33:13;;;;;;;5.13;2.65;;;;;;;;;;5032322;28;20325;-45
2022/05/11 11:35:50;;;;;;;10.52;2.85;;;;;;;;;;5043381;28;20238;-45
2022/05/11 11:38:44;;;;;;;10.05;3.08;;;;;;;;;;5043397;28;20643;-46
2022/05/11 11:41:13;;;;;;;9.18;2.83;;;;;;;;;;5038037;28;20232;-46
2022/05/11 11:44:30;;;;;;;9.82;2.83;;;;;;;;;;5042170;28;20610;-45
2022/05/11 11:46:59;;;;;;;11.07;2.70;;;;;;;;;;4992433;28;20248;-46
2022/05/11 11:49:27;;;;;;;9.13;2.83;;;;;;;;;;5014336;28;20233;-45
2022/05/11 11:52:00;;;;;;;8.07;2.70;;;;;;;;;;5013750;28;20632;-46
2022/05/11 11:54:46;;;;;;;8.27;2.75;;;;;;;;;;5014207;28;20226;-46
2022/05/11 11:57:16;;;;;;;10.90;2.97;;;;;;;;;;4997459;28;20607;-44
2022/05/11 11:59:48;;;;;;;9.70;3.35;;;;;;;;;;5013883;28;20233;-45
2022/05/11 12:02:19;;;;;;;8.60;2.90;;;;;;;;;;5012990;28;20232;-45
2022/05/11 12:04:51;;;;;;;15.13;3.40;;;;;;;;;;5013869;28;20229;-46
2022/05/11 12:16:16;;;;;;;4.95;2.88;;;;;;;;;;5009382;28;20603;-46
2022/05/11 12:18:44;;;;;;;5.38;2.78;;;;;;;;;;4993982;28;20225;-45
2022/05/11 12:21:24;;;;;;;24.95;3.92;;;;;;;;;;5022077;28;20228;-45
2022/05/11 12:23:51;;;;;;;11.95;3.67;;;;;;;;;;5034105;28;20232;-48
2022/05/11 12:26:26;;;;;;;14.43;3.17;;;;;;;;;;5035039;28;20729;-46
2022/05/11 12:31:59;;;;;;;48.58;4.90;;;;;;;;;;5034102;28;20246;-47
2022/05/11 12:34:28;;;;;;;13.93;3.38;;;;;;;;;;5034728;28;20233;-46
2022/05/11 12:36:56;;;;;;;9.27;3.33;;;;;;;;;;5034718;28;20224;-46
2022/05/11 12:39:38;;;;;;;5.20;2.45;;;;;;;;;;5034711;28;20720;-45
2022/05/11 12:42:06;;;;;;;6.85;3.30;;;;;;;;;;5034341;28;20237;-45
2022/05/11 12:44:35;;;;;;;15.48;3.50;;;;;;;;;;5031961;28;20295;-45
2022/05/11 12:47:04;;;;;;;8.00;3.00;;;;;;;;;;5043809;28;20323;-45
2022/05/11 12:49:32;;;;;;;9.23;3.10;;;;;;;;;;5024366;28;20236;-46
2022/05/11 12:52:08;;;;;;;10.35;3.03;;;;;;;;;;5046676;28;20248;-46
2022/05/11 12:54:35;;;;;;;5.68;2.75;;;;;;;;;;5030775;28;20298;-46
2022/05/11 12:57:08;;;;;;;9.32;2.97;;;;;;;;;;5033285;28;20236;-46
2022/05/11 12:59:35;;;;;;;6.88;2.88;;;;;;;;;;5034427;28;20228;-47
2022/05/11 13:02:18;;;;;;;20.98;4.30;;;;;;;;;;5033299;28;20220;-45
2022/05/11 13:05:00;;;;;;;11.85;3.10;;;;;;;;;;5034221;28;20229;-46
2022/05/11 13:07:33;;;;;;;9.07;3.10;;;;;;;;;;5034188;28;20244;-45
2022/05/11 13:10:00;;;;;;;8.73;3.50;;;;;;;;;;5033177;28;20232;-46
2022/05/11 13:12:29;;;;;;;12.93;3.15;;;;;;;;;;5033603;28;20289;-46
2022/05/11 13:14:57;;;;;;;12.40;3.40;;;;;;;;;;5032560;28;20240;-46
2022/05/11 13:17:27;;;;;;;7.07;2.90;;;;;;;;;;5047050;28;20224;-46
2022/05/11 13:19:57;;;;;;;11.55;3.30;;;;;;;;;;5053177;28;20570;-47
2022/05/11 13:22:25;;;;;;;15.35;3.70;;;;;;;;;;5053322;28;20224;-45
2022/05/11 13:24:56;;;;;;;6.03;3.25;;;;;;;;;;5038345;28;20243;-46
2022/05/11 13:27:36;;;;;;;21.63;3.55;;;;;;;;;;5033833;28;20586;-45
2022/05/11 13:30:17;;;;;;;23.25;4.32;;;;;;;;;;5032653;28;20266;-45
2022/05/11 13:32:50;;;;;;;7.75;3.47;;;;;;;;;;5032536;28;20239;-46
2022/05/11 13:35:22;;;;;;;6.45;3.15;;;;;;;;;;5033723;28;20315;-45
2022/05/11 13:38:10;;;;;;;95.32;7.30;;;;;;;;;;5034156;28;20278;-45
2022/05/11 13:40:38;;;;;;;43.70;5.57;;;;;;;;;;5034179;28;20667;-46
2022/05/11 13:43:25;;;;;;;9.05;3.60;;;;;;;;;;5033535;28;20224;-45
2022/05/11 13:46:02;;;;;;;12.23;3.45;;;;;;;;;;5023229;28;20225;-48
2022/05/11 13:48:43;;;;;;;15.55;4.22;;;;;;;;;;5034268;28;20246;-47
2022/05/11 13:51:26;;;;;;;21.48;3.72;;;;;;;;;;5017624;28;20249;-47
2022/05/11 13:53:56;;;;;;;10.23;3.47;;;;;;;;;;5013985;28;20686;-45
2022/05/11 13:56:28;;;;;;;7.28;3.40;;;;;;;;;;5014245;28;20229;-47
2022/05/11 13:58:58;;;;;;;11.95;3.67;;;;;;;;;;5013609;28;20564;-47
2022/05/11 14:01:28;;;;;;;10.30;3.65;;;;;;;;;;5025175;28;20225;-46
2022/05/11 14:03:59;;;;;;;6.38;3.60;;;;;;;;;;5033751;28;20255;-47
2022/05/11 14:06:29;;;;;;;6.78;3.30;;;;;;;;;;5034910;28;20671;-46
2022/05/11 14:08:57;;;;;;;7.82;3.55;;;;;;;;;;5037252;28;20245;-49
2022/05/11 14:11:24;;;;;;;5.18;3.20;;;;;;;;;;5037422;28;20295;-46
2022/05/11 14:13:51;;;;;;;10.82;3.53;;;;;;;;;;5037147;28;20240;-46
2022/05/11 14:16:27;;;;;;;9.40;3.88;;;;;;;;;;5040597;28;20323;-47
2022/05/11 14:18:56;;;;;;;10.88;3.70;;;;;;;;;;5045412;28;20240;-46
2022/05/11 14:21:23;;;;;;;14.00;3.85;;;;;;;;;;5037214;28;20613;-46
2022/05/11 14:23:50;;;;;;;10.70;4.38;;;;;;;;;;5037113;28;20236;-52
2022/05/11 14:26:18;;;;;;;5.63;3.67;;;;;;;;;;5036848;28;20317;-46
2022/05/11 14:28:45;;;;;;;194.02;48.88;;;;;;;;;;5037220;28;20240;-45
2022/05/11 14:31:16;;;;;;;21.40;6.07;;;;;;;;;;5036146;28;20224;-47
2022/05/11 14:33:45;;;;;;;8.82;3.83;;;;;;;;;;5036963;28;20289;-45
2022/05/11 14:36:12;;;;;;;59.80;19.38;;;;;;;;;;5036176;28;20225;-47
2022/05/11 14:38:39;;;;;;;9.73;4.60;;;;;;;;;;5036923;28;20247;-49
2022/05/11 14:41:07;;;;;;;75.20;8.77;;;;;;;;;;5036880;28;20239;-46
2022/05/11 14:43:34;;;;;;;13.43;4.32;;;;;;;;;;5037540;28;20270;-48
2022/05/11 14:46:02;;;;;;;10.75;4.00;;;;;;;;;;5021531;28;20240;-49
2022/05/11 14:48:34;;;;;;;13.07;3.90;;;;;;;;;;5046850;28;20243;-46
2022/05/11 14:51:04;;;;;;;11.55;4.57;;;;;;;;;;5048407;28;20246;-47
2022/05/11 14:53:32;;;;;;;12.30;4.15;;;;;;;;;;5046351;28;20235;-47
2022/05/11 14:55:58;;;;;;;13.75;5.05;;;;;;;;;;5043427;28;20318;-46
2022/05/11 15:04:04;;;;;;;15.80;5.65;;;;;;;;;;5036195;28;20527;-48
2022/05/11 15:06:37;;;;;;;11.20;4.50;;;;;;;;;;5036300;28;20267;-47
2022/05/11 15:09:04;;;;;;;13.98;4.25;;;;;;;;;;5036342;28;20255;-48
2022/05/11 15:14:30;;;;;;;14.43;4.50;;;;;;;;;;5036668;28;20189;-46
2022/05/11 15:17:03;;;;;;;13.48;4.30;;;;;;;;;;5036868;28;20201;-47
2022/05/11 15:19:30;;;;;;;18.27;4.38;;;;;;;;;;5036337;28;20231;-48
2022/05/11 15:21:57;;;;;;;11.73;4.47;;;;;;;;;;5035910;28;20561;-48
2022/05/11 15:24:25;;;;;;;6.72;4.03;;;;;;;;;;5037067;28;20209;-46
2022/05/11 15:26:52;;;;;;;24.08;5.15;;;;;;;;;;5036691;28;20204;-48
2022/05/11 15:29:19;;;;;;;18.98;4.70;;;;;;;;;;5036651;28;20229;-48
2022/05/11 15:31:47;;;;;;;11.38;4.25;;;;;;;;;;5036615;28;20644;-48
2022/05/11 15:34:17;;;;;;;7.05;4.15;;;;;;;;;;5036622;28;20219;-47
2022/05/11 15:36:44;;;;;;;7.97;4.00;;;;;;;;;;5036270;28;20205;-46
2022/05/11 15:39:12;;;;;;;11.38;4.35;;;;;;;;;;5036708;28;20201;-48
2022/05/11 15:41:39;;;;;;;11.73;4.25;;;;;;;;;;5036568;28;20263;-46
2022/05/11 15:44:09;;;;;;;17.20;4.75;;;;;;;;;;5035274;28;20259;-48
2022/05/11 15:46:36;;;;;;;17.50;4.68;;;;;;;;;;5036272;28;20205;-47
2022/05/11 15:49:04;;;;;;;6.82;4.32;;;;;;;;;;5036108;28;20282;-47
2022/05/11 15:51:32;;;;;;;7.75;5.10;;;;;;;;;;5033125;28;20239;-50
2022/05/11 15:53:59;;;;;;;8.60;4.78;;;;;;;;;;5024741;28;20220;-47
2022/05/11 15:56:26;;;;;;;14.30;4.82;;;;;;;;;;5036252;28;20201;-48
2022/05/11 15:58:53;;;;;;;15.48;5.40;;;;;;;;;;5036599;28;20216;-49
2022/05/11 16:01:23;;;;;;;12.98;4.97;;;;;;;;;;5036187;28;20209;-47
2022/05/11 16:03:51;;;;;;;14.15;4.53;;;;;;;;;;5015629;28;20198;-48